Time;durP1;ratioP1;P1;durP2;ratioP2;P2;SDS_P1;SDS_P2;PMS_P1;PMS_P2;Temp;Humidity;BMP_temperature;BMP_pressure;BME280_temperature;BME280_humidity;BME280_pressure;Samples;Min_cycle;Max_cycle;Signal;HPM_P1;HPM_P2
2023/08/09 00:00:57;;;;;;;1.33;0.75;;;19.60;68.60;;;;;;5053636;28;20174;-63
2023/08/09 00:03:23;;;;;;;1.13;0.80;;;19.60;68.60;;;;;;5054549;28;20517;-63
2023/08/09 00:05:49;;;;;;;0.82;0.75;;;19.60;68.60;;;;;;5054553;28;20582;-63
2023/08/09 00:08:14;;;;;;;0.60;0.60;;;19.60;68.60;;;;;;5053360;28;20182;-63
2023/08/09 00:10:40;;;;;;;1.83;0.90;;;19.60;68.50;;;;;;5054365;28;20298;-63
2023/08/09 00:13:06;;;;;;;0.73;0.73;;;19.60;68.60;;;;;;5053039;28;20194;-62
2023/08/09 00:15:32;;;;;;;1.70;0.90;;;19.50;68.50;;;;;;5053567;28;20186;-63
2023/08/09 00:17:58;;;;;;;2.15;0.68;;;19.60;68.60;;;;;;5054376;28;20187;-62
2023/08/09 00:20:23;;;;;;;1.42;0.93;;;19.60;68.60;;;;;;5054421;28;20209;-62
2023/08/09 00:22:49;;;;;;;1.25;0.80;;;19.60;68.70;;;;;;5053553;28;20175;-62
2023/08/09 00:25:15;;;;;;;0.63;0.63;;;19.60;68.60;;;;;;5053935;28;20549;-63
2023/08/09 00:27:40;;;;;;;0.75;0.70;;;19.50;68.60;;;;;;5054196;28;20175;-62
2023/08/09 00:30:08;;;;;;;1.25;0.80;;;19.60;68.70;;;;;;5052511;28;20214;-62
2023/08/09 00:32:34;;;;;;;0.70;0.70;;;19.60;68.70;;;;;;5053859;28;20779;-63
2023/08/09 00:34:59;;;;;;;0.70;0.70;;;19.60;68.70;;;;;;5053113;28;20254;-63
2023/08/09 00:37:26;;;;;;;1.15;0.88;;;19.50;68.60;;;;;;5053967;28;20171;-63
2023/08/09 00:39:52;;;;;;;1.45;0.70;;;19.60;68.60;;;;;;5053951;28;20302;-63
2023/08/09 00:42:17;;;;;;;0.80;0.80;;;19.50;68.60;;;;;;5052659;28;20744;-63
2023/08/09 00:44:43;;;;;;;0.70;0.70;;;19.50;68.70;;;;;;5053712;28;20602;-62
2023/08/09 00:47:09;;;;;;;0.70;0.70;;;19.50;68.60;;;;;;5053596;28;20175;-63
2023/08/09 00:49:35;;;;;;;0.73;0.73;;;19.50;68.60;;;;;;5052038;28;20207;-62
2023/08/09 00:52:01;;;;;;;0.73;0.73;;;19.50;68.60;;;;;;5036002;28;20179;-62
2023/08/09 00:54:26;;;;;;;0.80;0.80;;;19.50;69.50;;;;;;5052877;28;20178;-62
2023/08/09 00:56:52;;;;;;;0.88;0.70;;;19.50;68.60;;;;;;5052115;28;20195;-63
2023/08/09 00:59:17;;;;;;;1.20;0.60;;;19.50;68.70;;;;;;5036159;28;20178;-63
2023/08/09 01:01:43;;;;;;;0.95;0.85;;;19.50;68.70;;;;;;5054152;28;20653;-63
2023/08/09 01:04:15;;;;;;;1.55;0.77;;;19.50;68.70;;;;;;5052926;28;20634;-63
2023/08/09 01:07:06;;;;;;;0.60;0.60;;;19.50;68.70;;;;;;5036066;28;20179;-63
2023/08/09 01:09:49;;;;;;;1.00;0.55;;;19.50;68.70;;;;;;5053417;28;20573;-62
2023/08/09 01:12:18;;;;;;;0.98;0.98;;;19.50;68.70;;;;;;5052916;28;20182;-62
2023/08/09 01:14:44;;;;;;;0.88;0.80;;;19.40;68.70;;;;;;5052451;28;20537;-62
2023/08/09 01:17:12;;;;;;;0.60;0.60;;;19.50;68.70;;;;;;5051541;28;20187;-62
2023/08/09 01:19:44;;;;;;;0.73;0.73;;;19.40;68.70;;;;;;5053389;28;20186;-62
2023/08/09 01:22:19;;;;;;;0.88;0.77;;;19.40;68.60;;;;;;5036148;28;20175;-62
2023/08/09 01:24:45;;;;;;;0.60;0.60;;;19.40;68.70;;;;;;5052704;28;20284;-62
2023/08/09 01:27:10;;;;;;;1.98;1.00;;;19.40;69.60;;;;;;5053075;28;20626;-63
2023/08/09 01:29:36;;;;;;;1.23;0.82;;;19.40;68.90;;;;;;5053527;28;20326;-62
2023/08/09 01:32:02;;;;;;;0.73;0.73;;;19.50;68.70;;;;;;5052411;28;20178;-63
2023/08/09 01:34:28;;;;;;;1.00;0.90;;;19.40;68.70;;;;;;5053451;28;20171;-63
2023/08/09 01:36:54;;;;;;;0.95;0.85;;;19.40;68.70;;;;;;5053219;28;20206;-63
2023/08/09 01:39:21;;;;;;;0.80;0.80;;;19.40;68.70;;;;;;5034677;28;20240;-63
2023/08/09 01:41:48;;;;;;;0.60;0.60;;;19.40;68.70;;;;;;5051763;28;20673;-63
2023/08/09 01:44:14;;;;;;;0.85;0.85;;;19.40;68.90;;;;;;5052797;28;20637;-62
2023/08/09 01:46:40;;;;;;;0.77;0.63;;;19.40;68.80;;;;;;5051289;28;20557;-62
2023/08/09 01:49:13;;;;;;;1.00;0.90;;;19.40;68.80;;;;;;5052715;28;20171;-62
2023/08/09 01:51:38;;;;;;;0.80;0.80;;;19.40;69.50;;;;;;5053169;28;20218;-62
2023/08/09 01:54:05;;;;;;;1.20;1.10;;;19.40;68.70;;;;;;5052168;28;20526;-62
2023/08/09 01:56:30;;;;;;;0.70;0.70;;;19.40;68.70;;;;;;5052897;28;20204;-62
2023/08/09 01:58:56;;;;;;;1.52;1.00;;;19.40;68.70;;;;;;5052258;28;20590;-62
2023/08/09 02:01:23;;;;;;;1.20;1.10;;;19.40;68.80;;;;;;5051948;28;20172;-63
2023/08/09 02:03:49;;;;;;;0.75;0.75;;;19.40;68.70;;;;;;5052559;28;20201;-63
2023/08/09 02:06:14;;;;;;;0.95;0.95;;;19.40;68.80;;;;;;5052461;28;20543;-63
2023/08/09 02:08:41;;;;;;;0.65;0.65;;;19.40;68.90;;;;;;5052003;28;20171;-62
2023/08/09 02:11:07;;;;;;;1.17;0.95;;;19.40;69.10;;;;;;5052209;28;20238;-64
2023/08/09 02:13:32;;;;;;;1.00;1.00;;;19.40;68.80;;;;;;5051994;28;20248;-62
2023/08/09 02:15:58;;;;;;;0.70;0.70;;;19.40;68.80;;;;;;5052271;28;20167;-63
2023/08/09 02:18:23;;;;;;;0.90;0.90;;;19.40;68.80;;;;;;5052368;28;20179;-62
2023/08/09 02:20:49;;;;;;;0.77;0.70;;;19.40;68.80;;;;;;5052000;28;20206;-62
2023/08/09 02:23:15;;;;;;;0.70;0.70;;;19.40;69.10;;;;;;5052340;28;20240;-63
2023/08/09 02:25:40;;;;;;;1.25;1.00;;;19.40;69.20;;;;;;5052378;28;20186;-62
2023/08/09 02:28:06;;;;;;;0.95;0.88;;;19.40;68.80;;;;;;5051452;28;20171;-62
2023/08/09 02:30:31;;;;;;;1.00;1.00;;;19.40;69.00;;;;;;5052359;28;20214;-62
2023/08/09 02:32:57;;;;;;;0.82;0.80;;;19.40;69.00;;;;;;5051964;28;20167;-63
2023/08/09 02:35:22;;;;;;;1.02;1.00;;;19.40;69.00;;;;;;5051697;28;20202;-63
2023/08/09 02:37:49;;;;;;;0.80;0.80;;;19.40;68.80;;;;;;5056367;28;20178;-63
2023/08/09 02:40:14;;;;;;;0.95;0.90;;;19.40;68.90;;;;;;5055955;28;20551;-63
2023/08/09 02:42:40;;;;;;;0.70;0.68;;;19.40;68.80;;;;;;5055511;28;20230;-63
2023/08/09 02:45:06;;;;;;;0.93;0.90;;;19.40;68.80;;;;;;5056024;28;20656;-62
2023/08/09 02:47:31;;;;;;;0.75;0.70;;;19.40;68.80;;;;;;5056170;28;20175;-62
2023/08/09 02:49:57;;;;;;;1.05;0.95;;;19.40;68.80;;;;;;5055377;28;20206;-62
2023/08/09 02:52:22;;;;;;;1.08;0.73;;;19.40;68.90;;;;;;5056211;28;20665;-62
2023/08/09 02:54:48;;;;;;;0.80;0.80;;;19.40;68.90;;;;;;5056280;28;20186;-62
2023/08/09 02:57:14;;;;;;;0.98;0.80;;;19.40;69.80;;;;;;5054952;28;20664;-62
2023/08/09 02:59:39;;;;;;;1.00;1.00;;;19.40;69.00;;;;;;5056005;28;20175;-63
2023/08/09 03:02:05;;;;;;;0.73;0.73;;;19.30;68.80;;;;;;5055349;28;20325;-63
2023/08/09 03:04:31;;;;;;;0.85;0.85;;;19.40;69.00;;;;;;5055020;28;20179;-63
2023/08/09 03:06:57;;;;;;;0.80;0.80;;;19.40;68.90;;;;;;5055664;28;20179;-63
2023/08/09 03:09:22;;;;;;;0.80;0.80;;;19.40;68.90;;;;;;5055512;28;20175;-63
2023/08/09 03:11:48;;;;;;;1.27;1.17;;;19.30;69.00;;;;;;5054953;28;20681;-62
2023/08/09 03:14:13;;;;;;;0.90;0.90;;;19.30;68.90;;;;;;5055117;28;20171;-62
2023/08/09 03:16:41;;;;;;;1.08;0.98;;;19.30;68.90;;;;;;5055358;28;20261;-62
2023/08/09 03:19:07;;;;;;;0.82;0.82;;;19.30;68.90;;;;;;5054847;28;20190;-65
2023/08/09 03:21:32;;;;;;;1.17;1.10;;;19.20;69.10;;;;;;5055436;28;20179;-63
2023/08/09 03:23:58;;;;;;;0.80;0.80;;;19.30;69.00;;;;;;5054255;28;20190;-63
2023/08/09 03:26:23;;;;;;;0.77;0.77;;;19.30;68.90;;;;;;5054943;28;20253;-62
2023/08/09 03:28:49;;;;;;;0.98;0.98;;;19.30;69.00;;;;;;5055194;28;20511;-62
2023/08/09 03:31:14;;;;;;;1.20;1.10;;;19.30;69.20;;;;;;5054053;28;20202;-62
2023/08/09 03:33:40;;;;;;;1.20;0.80;;;19.30;69.00;;;;;;5055014;28;20651;-62
2023/08/09 03:36:05;;;;;;;1.35;1.25;;;19.30;69.00;;;;;;5054859;28;20175;-62
2023/08/09 03:38:31;;;;;;;0.70;0.70;;;19.30;68.90;;;;;;5053167;28;20298;-62
2023/08/09 03:40:57;;;;;;;0.90;0.90;;;19.30;69.20;;;;;;5054726;28;20188;-62
2023/08/09 03:43:22;;;;;;;0.85;0.85;;;19.30;69.00;;;;;;5054289;28;20219;-62
2023/08/09 03:45:48;;;;;;;1.23;0.88;;;19.30;69.00;;;;;;5054019;28;20202;-62
2023/08/09 03:48:13;;;;;;;0.98;0.93;;;19.30;68.90;;;;;;5054762;28;20167;-62
2023/08/09 03:50:39;;;;;;;0.70;0.70;;;19.30;69.10;;;;;;5054946;28;20709;-62
2023/08/09 03:53:05;;;;;;;1.10;1.00;;;19.30;69.10;;;;;;5053892;28;20179;-62
2023/08/09 03:55:30;;;;;;;1.15;1.05;;;19.20;68.90;;;;;;5054909;28;20178;-62
2023/08/09 03:57:56;;;;;;;1.35;1.25;;;19.30;69.80;;;;;;5054709;28;20258;-62
2023/08/09 04:00:22;;;;;;;0.75;0.75;;;19.30;69.80;;;;;;5053870;28;20390;-63
2023/08/09 04:02:48;;;;;;;0.95;0.95;;;19.30;69.10;;;;;;5054769;28;20182;-63
2023/08/09 04:05:14;;;;;;;1.30;1.20;;;19.30;69.40;;;;;;5054155;28;20171;-63
2023/08/09 04:07:39;;;;;;;1.00;1.00;;;19.30;69.10;;;;;;5053935;28;20214;-63
2023/08/09 04:10:06;;;;;;;1.50;1.40;;;19.30;69.30;;;;;;5054048;28;20235;-63
2023/08/09 04:12:32;;;;;;;1.27;1.17;;;19.30;69.20;;;;;;5054501;28;20183;-62
2023/08/09 04:14:57;;;;;;;1.08;1.05;;;19.30;70.00;;;;;;5053187;28;20182;-62
2023/08/09 04:17:23;;;;;;;1.05;1.05;;;19.30;69.00;;;;;;5054091;28;20217;-62
2023/08/09 04:19:52;;;;;;;1.00;0.90;;;19.30;69.10;;;;;;5054166;28;20197;-62
2023/08/09 04:22:18;;;;;;;2.13;1.05;;;19.20;69.30;;;;;;5053339;28;20244;-62
2023/08/09 04:24:44;;;;;;;0.98;0.98;;;19.30;70.10;;;;;;5054294;28;20626;-62
2023/08/09 04:27:09;;;;;;;0.90;0.90;;;19.30;69.20;;;;;;5053200;28;20202;-62
2023/08/09 04:29:35;;;;;;;1.20;1.10;;;19.30;69.50;;;;;;5054005;28;20262;-62
2023/08/09 04:32:01;;;;;;;1.02;1.02;;;19.30;69.20;;;;;;5053998;28;20563;-63
2023/08/09 04:34:27;;;;;;;0.77;0.77;;;19.30;69.20;;;;;;5053239;28;20643;-63
2023/08/09 04:36:52;;;;;;;1.08;1.08;;;19.30;70.20;;;;;;5053979;28;20270;-63
2023/08/09 04:39:18;;;;;;;0.82;0.82;;;19.30;69.30;;;;;;5053637;28;20175;-62
2023/08/09 04:41:44;;;;;;;2.25;1.10;;;19.30;69.30;;;;;;5052996;28;20171;-61
2023/08/09 04:44:10;;;;;;;0.93;0.85;;;19.30;69.60;;;;;;5053254;28;20194;-62
2023/08/09 04:46:35;;;;;;;1.23;1.13;;;19.20;69.30;;;;;;5053703;28;20613;-62
2023/08/09 04:49:03;;;;;;;0.98;0.98;;;19.30;69.20;;;;;;5052789;28;20175;-62
2023/08/09 04:51:31;;;;;;;0.95;0.95;;;19.20;69.30;;;;;;5053699;28;20579;-62
2023/08/09 04:53:56;;;;;;;0.90;0.90;;;19.30;69.10;;;;;;5053332;28;20650;-61
2023/08/09 04:56:22;;;;;;;0.80;0.80;;;19.30;69.00;;;;;;5052762;28;20194;-62
2023/08/09 04:58:48;;;;;;;1.10;1.00;;;19.30;69.20;;;;;;5051785;28;20180;-62
2023/08/09 05:01:13;;;;;;;0.77;0.77;;;19.20;69.10;;;;;;5053049;28;20210;-63
2023/08/09 05:03:39;;;;;;;1.20;0.90;;;19.20;69.00;;;;;;5052859;28;20176;-62
2023/08/09 05:06:04;;;;;;;0.90;0.90;;;19.20;69.10;;;;;;5053070;28;20630;-63
2023/08/09 05:08:30;;;;;;;1.00;0.95;;;19.20;69.40;;;;;;5053353;28;20178;-62
2023/08/09 05:10:55;;;;;;;1.10;1.00;;;19.20;69.20;;;;;;5052332;28;20689;-62
2023/08/09 05:13:21;;;;;;;1.30;1.20;;;19.30;69.20;;;;;;5053025;28;20171;-62
2023/08/09 05:15:46;;;;;;;0.90;0.90;;;19.30;69.10;;;;;;5053420;28;20250;-62
2023/08/09 05:18:12;;;;;;;1.20;1.10;;;19.20;69.10;;;;;;5052253;28;20337;-62
2023/08/09 05:20:38;;;;;;;2.17;0.90;;;19.30;69.20;;;;;;5053314;28;20587;-62
2023/08/09 05:23:03;;;;;;;1.10;1.10;;;19.20;69.40;;;;;;5052766;28;20178;-63
2023/08/09 05:25:29;;;;;;;0.98;0.98;;;19.30;69.30;;;;;;5052338;28;20178;-63
2023/08/09 05:27:55;;;;;;;1.00;0.90;;;19.30;69.20;;;;;;5052925;28;20209;-63
2023/08/09 05:30:22;;;;;;;1.33;1.17;;;19.20;69.00;;;;;;5052195;28;20662;-62
2023/08/09 05:32:47;;;;;;;1.10;1.10;;;19.20;69.10;;;;;;5053038;28;20244;-62
2023/08/09 05:35:13;;;;;;;1.10;1.10;;;19.30;69.10;;;;;;5052582;28;20178;-63
2023/08/09 05:37:38;;;;;;;0.90;0.90;;;19.20;69.00;;;;;;5052236;28;20573;-63
2023/08/09 05:40:09;;;;;;;1.02;1.00;;;19.30;69.20;;;;;;5052439;28;20171;-63
2023/08/09 05:42:35;;;;;;;1.00;1.00;;;19.30;69.30;;;;;;5052170;28;20233;-62
2023/08/09 05:45:00;;;;;;;0.90;0.90;;;19.20;69.10;;;;;;5051739;28;20171;-62
2023/08/09 05:47:26;;;;;;;1.40;1.30;;;19.20;69.10;;;;;;5052493;28;20675;-62
2023/08/09 05:49:51;;;;;;;1.10;1.00;;;19.30;69.20;;;;;;5052509;28;20693;-62
2023/08/09 05:52:17;;;;;;;1.23;1.13;;;19.30;69.30;;;;;;5051592;28;20329;-62
2023/08/09 05:54:43;;;;;;;1.10;1.00;;;19.30;69.10;;;;;;5052486;28;20171;-62
2023/08/09 05:57:08;;;;;;;1.40;1.20;;;19.30;69.10;;;;;;5052109;28;20175;-62
2023/08/09 05:59:34;;;;;;;1.10;1.00;;;19.30;69.10;;;;;;5051839;28;20167;-62
2023/08/09 06:02:01;;;;;;;1.10;1.02;;;19.30;69.20;;;;;;5052102;28;20175;-63
2023/08/09 06:04:26;;;;;;;1.25;1.17;;;19.30;69.20;;;;;;5052495;28;20204;-62
2023/08/09 06:06:52;;;;;;;0.93;0.93;;;19.30;69.10;;;;;;5051605;28;20206;-64
2023/08/09 06:09:18;;;;;;;1.63;1.30;;;19.30;69.00;;;;;;5052018;28;20171;-62
2023/08/09 06:11:43;;;;;;;1.40;1.30;;;19.30;69.10;;;;;;5051274;28;20226;-62
2023/08/09 06:14:09;;;;;;;0.95;0.95;;;19.30;69.10;;;;;;5051300;28;20687;-62
2023/08/09 06:16:34;;;;;;;1.40;1.30;;;19.40;69.10;;;;;;5052271;28;20281;-62
2023/08/09 06:19:00;;;;;;;1.30;1.20;;;19.30;69.10;;;;;;5051977;28;20199;-62
2023/08/09 06:21:25;;;;;;;1.20;1.10;;;19.40;69.10;;;;;;5051458;28;20256;-62
2023/08/09 06:23:51;;;;;;;1.10;1.10;;;19.40;69.10;;;;;;5052117;28;20175;-62
2023/08/09 06:26:17;;;;;;;1.48;1.38;;;19.40;69.10;;;;;;5052012;28;20179;-62
2023/08/09 06:28:42;;;;;;;1.50;1.40;;;19.40;69.20;;;;;;5051635;28;20185;-62
2023/08/09 06:31:08;;;;;;;1.40;1.30;;;19.40;69.10;;;;;;5051899;28;20721;-62
2023/08/09 06:33:42;;;;;;;1.25;1.15;;;19.30;69.20;;;;;;5050997;28;20481;-62
2023/08/09 06:36:08;;;;;;;1.75;1.65;;;19.30;69.20;;;;;;5051793;28;20189;-63
2023/08/09 06:38:34;;;;;;;1.85;1.67;;;19.30;69.20;;;;;;5051882;28;20205;-62
2023/08/09 06:40:59;;;;;;;1.38;1.27;;;19.40;69.20;;;;;;5051396;28;20182;-62
2023/08/09 06:43:25;;;;;;;1.40;1.30;;;19.40;69.20;;;;;;5052132;28;20630;-62
2023/08/09 06:45:51;;;;;;;1.42;1.33;;;19.40;69.20;;;;;;5052544;28;20211;-62
2023/08/09 06:48:17;;;;;;;2.72;1.45;;;19.40;69.20;;;;;;5051339;28;20172;-62
2023/08/09 06:50:42;;;;;;;1.95;1.45;;;19.40;69.20;;;;;;5052231;28;20279;-61
2023/08/09 06:53:18;;;;;;;1.60;1.50;;;19.40;69.10;;;;;;5051817;28;20180;-61
2023/08/09 06:55:43;;;;;;;2.28;1.70;;;19.40;69.10;;;;;;5051445;28;20171;-62
2023/08/09 06:58:09;;;;;;;1.63;1.52;;;19.40;68.90;;;;;;5051886;28;20228;-62
2023/08/09 07:00:34;;;;;;;1.80;1.70;;;19.40;68.90;;;;;;5052038;28;20214;-62
2023/08/09 07:03:00;;;;;;;2.15;1.95;;;19.40;68.90;;;;;;5051070;28;20183;-62
2023/08/09 07:05:25;;;;;;;1.80;1.70;;;19.40;68.90;;;;;;5052063;28;20179;-62
2023/08/09 07:07:57;;;;;;;1.98;1.88;;;19.40;68.90;;;;;;5051747;28;20626;-62
2023/08/09 07:10:25;;;;;;;1.58;1.45;;;19.40;69.00;;;;;;5051036;28;20566;-62
2023/08/09 07:12:50;;;;;;;1.75;1.65;;;19.40;69.00;;;;;;5051773;28;20648;-63
2023/08/09 07:15:16;;;;;;;1.67;1.58;;;19.50;69.00;;;;;;5051846;28;20258;-62
2023/08/09 07:17:42;;;;;;;1.58;1.25;;;19.50;69.00;;;;;;5051119;28;20167;-64
2023/08/09 07:20:11;;;;;;;1.40;1.30;;;19.50;69.00;;;;;;5051693;28;20202;-64
2023/08/09 07:22:37;;;;;;;2.35;1.85;;;19.50;68.90;;;;;;5053612;28;20226;-66
2023/08/09 07:25:02;;;;;;;1.67;1.45;;;19.50;68.80;;;;;;5054591;28;20175;-63
2023/08/09 07:27:28;;;;;;;1.80;1.58;;;19.50;68.80;;;;;;5055500;28;20229;-63
2023/08/09 07:29:54;;;;;;;2.05;1.85;;;19.50;68.80;;;;;;5054934;28;20245;-64
2023/08/09 07:32:19;;;;;;;2.55;1.60;;;19.50;69.00;;;;;;5054820;28;20257;-64
2023/08/09 07:34:45;;;;;;;2.88;1.85;;;19.50;69.10;;;;;;5055077;28;20262;-65
2023/08/09 07:37:11;;;;;;;2.17;1.50;;;19.50;69.10;;;;;;5053925;28;20187;-64
2023/08/09 07:39:36;;;;;;;3.45;1.67;;;19.60;69.40;;;;;;5055437;28;20627;-64
2023/08/09 07:42:02;;;;;;;3.05;1.52;;;19.60;69.10;;;;;;5054440;28;20774;-64
2023/08/09 07:44:28;;;;;;;3.45;1.80;;;19.70;69.20;;;;;;5054558;28;20171;-64
2023/08/09 07:46:53;;;;;;;2.45;1.58;;;19.70;69.00;;;;;;5055175;28;20729;-63
2023/08/09 07:49:19;;;;;;;2.55;1.48;;;19.70;69.80;;;;;;5054732;28;20309;-64
2023/08/09 07:51:44;;;;;;;1.50;1.35;;;19.80;69.10;;;;;;5054145;28;20670;-65
2023/08/09 07:54:10;;;;;;;2.85;1.90;;;19.70;69.20;;;;;;5054882;28;20221;-65
2023/08/09 07:56:36;;;;;;;2.63;1.48;;;19.70;69.10;;;;;;5054956;28;20179;-61
2023/08/09 07:59:01;;;;;;;2.38;2.00;;;19.80;69.30;;;;;;5054034;28;20538;-61
2023/08/09 08:01:27;;;;;;;1.65;1.52;;;19.80;69.40;;;;;;5054962;28;20687;-61
2023/08/09 08:03:52;;;;;;;2.15;1.50;;;19.80;69.30;;;;;;5054596;28;20229;-66
2023/08/09 08:06:18;;;;;;;3.90;1.70;;;19.80;69.30;;;;;;5053530;28;20195;-67
2023/08/09 08:08:45;;;;;;;4.07;1.70;;;19.90;69.20;;;;;;5054696;28;20179;-67
2023/08/09 08:11:11;;;;;;;2.28;1.70;;;19.90;69.00;;;;;;5054030;28;20298;-66
2023/08/09 08:13:36;;;;;;;2.17;1.83;;;19.90;69.00;;;;;;5053297;28;20199;-65
2023/08/09 08:16:04;;;;;;;2.20;1.58;;;20.00;69.10;;;;;;5054020;28;20206;-66
2023/08/09 08:18:30;;;;;;;2.22;1.67;;;20.00;69.00;;;;;;5053173;28;20167;-65
2023/08/09 08:20:56;;;;;;;1.60;1.50;;;20.00;69.00;;;;;;5053453;28;20210;-66
2023/08/09 08:23:21;;;;;;;4.22;1.67;;;20.00;69.00;;;;;;5054083;28;20199;-66
2023/08/09 08:25:47;;;;;;;3.70;1.85;;;20.00;69.00;;;;;;5054238;28;20550;-65
2023/08/09 08:28:12;;;;;;;2.58;1.70;;;20.00;68.90;;;;;;5061383;28;20175;-66
2023/08/09 08:30:38;;;;;;;1.58;1.48;;;20.00;68.80;;;;;;5067905;28;20198;-65
2023/08/09 08:33:04;;;;;;;2.83;1.73;;;20.10;68.80;;;;;;5064612;28;20175;-66
2023/08/09 08:35:33;;;;;;;3.03;1.70;;;20.20;68.70;;;;;;5070935;28;20235;-67
2023/08/09 08:37:59;;;;;;;3.50;1.73;;;20.20;68.60;;;;;;5073732;28;20206;-67
2023/08/09 08:40:25;;;;;;;2.22;1.50;;;20.20;68.70;;;;;;5073388;28;20259;-67
2023/08/09 08:42:51;;;;;;;2.55;1.70;;;20.30;68.70;;;;;;5063486;28;20219;-66
2023/08/09 08:45:19;;;;;;;1.83;1.70;;;20.20;68.70;;;;;;5053566;28;20202;-66
2023/08/09 08:47:45;;;;;;;2.10;1.50;;;20.20;68.80;;;;;;5053135;28;20250;-65
2023/08/09 08:50:11;;;;;;;5.03;1.50;;;20.20;69.00;;;;;;5053850;28;20218;-65
2023/08/09 08:52:38;;;;;;;2.72;1.55;;;20.20;68.90;;;;;;5053757;28;20225;-65
2023/08/09 08:55:08;;;;;;;2.40;1.85;;;20.20;68.90;;;;;;5052597;28;20183;-65
2023/08/09 08:57:34;;;;;;;3.38;1.88;;;20.20;68.90;;;;;;5053768;28;20274;-66
2023/08/09 09:00:03;;;;;;;2.00;1.65;;;20.30;68.90;;;;;;5062859;28;20710;-66
2023/08/09 09:02:29;;;;;;;3.35;2.10;;;20.30;68.70;;;;;;5072589;28;20177;-66
2023/08/09 09:05:06;;;;;;;2.40;2.00;;;20.40;68.70;;;;;;5073525;28;20695;-66
2023/08/09 09:07:32;;;;;;;1.90;1.73;;;20.40;68.70;;;;;;5072066;28;20194;-67
2023/08/09 09:10:03;;;;;;;1.90;1.60;;;20.50;68.60;;;;;;5072339;28;20213;-66
2023/08/09 09:12:28;;;;;;;4.03;1.55;;;20.40;68.60;;;;;;5073031;28;20649;-65
2023/08/09 09:14:54;;;;;;;5.13;2.00;;;20.50;68.60;;;;;;5072874;28;20182;-65
2023/08/09 09:17:20;;;;;;;1.80;1.70;;;20.40;68.60;;;;;;5072350;28;20171;-66
2023/08/09 09:19:45;;;;;;;2.50;2.20;;;20.40;68.70;;;;;;5073283;28;20224;-66
2023/08/09 09:22:24;;;;;;;2.28;2.08;;;20.50;68.70;;;;;;5072992;28;20200;-66
2023/08/09 09:24:50;;;;;;;2.53;1.83;;;20.50;68.70;;;;;;5071614;28;20189;-66
2023/08/09 09:27:15;;;;;;;4.60;2.17;;;20.40;68.80;;;;;;5072733;28;20174;-66
2023/08/09 09:29:41;;;;;;;3.38;2.28;;;20.40;69.70;;;;;;5072216;28;20174;-66
2023/08/09 09:32:10;;;;;;;1.85;1.73;;;20.40;68.90;;;;;;5072478;28;20208;-67
2023/08/09 09:34:38;;;;;;;2.33;1.83;;;20.40;68.90;;;;;;5059115;28;20576;-67
2023/08/09 09:37:03;;;;;;;1.88;1.70;;;20.40;69.00;;;;;;5051901;28;20206;-67
2023/08/09 09:39:29;;;;;;;2.25;2.00;;;20.40;69.00;;;;;;5051710;28;20198;-68
2023/08/09 09:41:54;;;;;;;2.33;1.75;;;20.40;69.90;;;;;;5052830;28;20711;-67
2023/08/09 09:44:20;;;;;;;2.08;1.90;;;20.40;68.90;;;;;;5050750;28;20207;-67
2023/08/09 09:46:46;;;;;;;2.22;1.90;;;20.50;68.90;;;;;;5052698;28;20184;-67
2023/08/09 09:49:12;;;;;;;2.30;2.05;;;20.50;68.90;;;;;;5052583;28;20208;-67
2023/08/09 09:51:38;;;;;;;1.80;1.70;;;20.50;68.80;;;;;;5050731;28;20293;-66
2023/08/09 09:54:04;;;;;;;2.13;1.90;;;20.50;68.80;;;;;;5051189;28;20310;-66
2023/08/09 09:56:30;;;;;;;2.15;1.95;;;20.50;68.70;;;;;;5052716;28;20171;-66
2023/08/09 09:58:56;;;;;;;1.80;1.70;;;20.60;68.60;;;;;;5050482;28;20175;-67
2023/08/09 10:01:27;;;;;;;1.65;1.52;;;20.60;68.50;;;;;;5052570;28;20548;-68
2023/08/09 10:04:00;;;;;;;2.60;1.52;;;20.60;68.60;;;;;;5051394;28;20206;-67
2023/08/09 10:06:28;;;;;;;1.63;1.42;;;20.60;68.50;;;;;;5050583;28;20172;-68
2023/08/09 10:08:56;;;;;;;1.88;1.73;;;20.60;68.50;;;;;;5052366;28;20183;-67
2023/08/09 10:11:22;;;;;;;1.52;1.30;;;20.60;68.60;;;;;;5052136;28;20249;-66
2023/08/09 10:13:47;;;;;;;1.95;1.83;;;20.60;68.60;;;;;;5050710;28;20171;-66
2023/08/09 10:16:13;;;;;;;1.67;1.40;;;20.60;68.60;;;;;;5034340;28;20182;-66
2023/08/09 10:18:44;;;;;;;2.53;1.65;;;20.60;68.60;;;;;;5051192;28;20250;-66
2023/08/09 10:21:11;;;;;;;2.10;1.90;;;20.60;68.50;;;;;;5034302;28;20185;-66
2023/08/09 10:23:36;;;;;;;2.90;1.80;;;20.60;68.60;;;;;;5050984;28;20174;-66
2023/08/09 10:26:02;;;;;;;2.53;1.58;;;20.60;68.60;;;;;;5051407;28;20864;-66
2023/08/09 10:28:47;;;;;;;1.70;1.60;;;20.60;68.70;;;;;;5052358;28;20638;-66
2023/08/09 10:31:13;;;;;;;1.63;1.52;;;20.60;68.70;;;;;;5052004;28;20206;-67
2023/08/09 10:33:42;;;;;;;1.98;1.88;;;20.50;68.80;;;;;;5057332;28;20177;-67
2023/08/09 10:36:10;;;;;;;2.03;1.52;;;20.50;68.90;;;;;;5071773;28;20533;-68
2023/08/09 10:38:35;;;;;;;1.38;1.27;;;20.50;69.00;;;;;;5071079;28;20174;-67
2023/08/09 10:41:10;;;;;;;3.20;1.70;;;20.40;69.10;;;;;;5071115;28;20308;-68
2023/08/09 10:43:36;;;;;;;1.88;1.63;;;20.30;69.20;;;;;;5071975;28;20307;-67
2023/08/09 10:46:18;;;;;;;2.05;1.70;;;20.30;69.30;;;;;;5072003;28;20249;-67
2023/08/09 10:48:53;;;;;;;2.05;1.83;;;20.30;69.40;;;;;;5071515;28;20265;-67
2023/08/09 10:51:22;;;;;;;1.83;1.73;;;20.20;69.40;;;;;;5071799;28;20311;-66
2023/08/09 10:54:04;;;;;;;1.88;1.63;;;20.20;69.40;;;;;;5072043;28;20178;-67
2023/08/09 10:56:50;;;;;;;2.20;1.77;;;20.20;69.50;;;;;;5071998;28;20236;-66
2023/08/09 10:59:27;;;;;;;1.65;1.55;;;20.20;69.50;;;;;;5075219;28;20210;-67
2023/08/09 11:01:54;;;;;;;3.03;1.70;;;20.20;69.50;;;;;;5075194;28;20613;-68
2023/08/09 11:04:20;;;;;;;2.10;1.50;;;20.20;69.50;;;;;;5075348;28;20187;-67
2023/08/09 11:06:47;;;;;;;2.05;1.60;;;20.20;69.50;;;;;;5075664;28;20190;-67
2023/08/09 11:09:14;;;;;;;2.00;1.75;;;20.30;69.40;;;;;;5074701;28;20182;-67
2023/08/09 11:11:41;;;;;;;2.22;1.40;;;20.30;69.20;;;;;;5075445;28;20206;-67
2023/08/09 11:14:07;;;;;;;1.73;1.58;;;20.40;69.10;;;;;;5075251;28;20254;-66
2023/08/09 11:16:33;;;;;;;1.75;1.65;;;20.40;68.90;;;;;;5074715;28;20216;-66
2023/08/09 11:19:03;;;;;;;1.90;1.80;;;20.40;68.90;;;;;;5075349;28;20171;-66
2023/08/09 11:21:40;;;;;;;1.38;1.27;;;20.40;68.80;;;;;;5075492;28;20236;-67
2023/08/09 11:24:07;;;;;;;1.52;1.42;;;20.40;68.90;;;;;;5074268;28;20258;-66
2023/08/09 11:26:34;;;;;;;2.35;1.67;;;20.40;68.90;;;;;;5075544;28;20180;-67
2023/08/09 11:29:01;;;;;;;1.50;1.40;;;20.30;68.90;;;;;;5074873;28;20193;-67
2023/08/09 11:31:26;;;;;;;1.70;1.60;;;20.30;69.10;;;;;;5074748;28;20264;-68
2023/08/09 11:33:59;;;;;;;2.03;1.80;;;20.30;69.10;;;;;;5067693;28;20646;-67
2023/08/09 11:36:29;;;;;;;1.50;1.40;;;20.30;69.20;;;;;;5054910;28;20498;-68
2023/08/09 11:38:55;;;;;;;2.22;1.50;;;20.20;69.20;;;;;;5055209;28;20167;-68
2023/08/09 11:41:21;;;;;;;1.70;1.50;;;20.20;70.00;;;;;;5055128;28;20539;-68
2023/08/09 11:43:47;;;;;;;1.65;1.55;;;20.30;69.20;;;;;;5054042;28;20219;-67
2023/08/09 11:46:13;;;;;;;1.80;1.70;;;20.20;69.20;;;;;;5054768;28;20191;-67
2023/08/09 11:48:39;;;;;;;1.63;1.52;;;20.30;69.20;;;;;;5055024;28;20179;-68
2023/08/09 11:51:15;;;;;;;1.67;1.50;;;20.30;69.00;;;;;;5053925;28;20568;-68
2023/08/09 11:53:44;;;;;;;2.33;1.80;;;20.40;68.80;;;;;;5055086;28;20652;-66
2023/08/09 11:56:13;;;;;;;2.17;1.65;;;20.40;68.70;;;;;;5054534;28;20313;-66
2023/08/09 11:58:40;;;;;;;1.70;1.60;;;20.40;68.70;;;;;;5054075;28;20178;-66
2023/08/09 12:01:16;;;;;;;1.75;1.50;;;20.40;68.80;;;;;;5053357;28;20545;-68
2023/08/09 12:03:43;;;;;;;1.65;1.50;;;20.40;69.70;;;;;;5054580;28;20163;-66
2023/08/09 12:06:10;;;;;;;1.60;1.50;;;20.40;68.80;;;;;;5053867;28;20392;-66
2023/08/09 12:08:36;;;;;;;1.48;1.38;;;20.40;68.80;;;;;;5053414;28;20232;-65
2023/08/09 12:11:01;;;;;;;1.50;1.35;;;20.50;68.70;;;;;;5054358;28;20294;-66
2023/08/09 12:13:27;;;;;;;2.50;1.83;;;20.60;69.40;;;;;;5053852;28;20608;-65
2023/08/09 12:15:52;;;;;;;2.90;1.55;;;20.70;68.20;;;;;;5054388;28;20246;-65
2023/08/09 12:18:18;;;;;;;1.73;1.60;;;20.80;68.00;;;;;;5053759;28;20517;-65
2023/08/09 12:20:43;;;;;;;1.60;1.50;;;20.80;67.80;;;;;;5054755;28;20171;-65
2023/08/09 12:23:09;;;;;;;1.50;1.40;;;20.80;68.00;;;;;;5054020;28;20186;-65
2023/08/09 12:25:34;;;;;;;1.83;1.73;;;20.70;67.90;;;;;;5053531;28;20225;-65
2023/08/09 12:28:00;;;;;;;1.75;1.65;;;20.70;68.20;;;;;;5054018;28;20233;-65
2023/08/09 12:30:25;;;;;;;1.58;1.40;;;20.60;68.20;;;;;;5054101;28;20205;-65
2023/08/09 12:32:51;;;;;;;2.70;1.70;;;20.60;69.20;;;;;;5053323;28;20179;-66
2023/08/09 12:35:17;;;;;;;1.70;1.60;;;20.60;68.30;;;;;;5072946;28;20202;-66
2023/08/09 12:37:45;;;;;;;1.45;1.35;;;20.70;68.10;;;;;;5074000;28;20179;-67
2023/08/09 12:40:11;;;;;;;2.05;1.70;;;20.80;67.90;;;;;;5073198;28;20522;-66
2023/08/09 12:42:37;;;;;;;1.38;1.27;;;20.80;67.80;;;;;;5073806;28;20302;-66
2023/08/09 12:45:04;;;;;;;1.95;1.40;;;20.80;67.90;;;;;;5073582;28;20586;-66